sensor_id;sensor_type;location;lat;lon;timestamp;temperature;humidity
21722;DHT22;11023;48.274;7.794;2022-11-15T00:00:51;13.30;99.90
21722;DHT22;11023;48.274;7.794;2022-11-15T00:03:19;13.20;99.90
21722;DHT22;11023;48.274;7.794;2022-11-15T00:05:45;13.30;99.90
21722;DHT22;11023;48.274;7.794;2022-11-15T00:08:11;13.30;99.90
21722;DHT22;11023;48.274;7.794;2022-11-15T00:10:37;13.30;99.90
21722;DHT22;11023;48.274;7.794;2022-11-15T00:13:08;13.30;99.90
21722;DHT22;11023;48.274;7.794;2022-11-15T00:15:38;13.30;99.90
21722;DHT22;11023;48.274;7.794;2022-11-15T00:18:06;13.30;99.90
21722;DHT22;11023;48.274;7.794;2022-11-15T00:20:35;13.30;99.90
21722;DHT22;11023;48.274;7.794;2022-11-15T00:23:03;13.30;99.90
21722;DHT22;11023;48.274;7.794;2022-11-15T00:25:28;13.30;99.90
21722;DHT22;11023;48.274;7.794;2022-11-15T00:27:58;13.20;99.90
21722;DHT22;11023;48.274;7.794;2022-11-15T00:30:24;13.30;99.90
21722;DHT22;11023;48.274;7.794;2022-11-15T00:32:50;13.20;99.90
21722;DHT22;11023;48.274;7.794;2022-11-15T00:35:16;13.30;99.90
21722;DHT22;11023;48.274;7.794;2022-11-15T00:37:42;13.20;99.90
21722;DHT22;11023;48.274;7.794;2022-11-15T00:40:09;13.20;99.90
21722;DHT22;11023;48.274;7.794;2022-11-15T00:42:35;13.20;99.90
21722;DHT22;11023;48.274;7.794;2022-11-15T00:45:01;13.20;99.90
21722;DHT22;11023;48.274;7.794;2022-11-15T00:47:26;13.10;99.90
21722;DHT22;11023;48.274;7.794;2022-11-15T00:49:52;13.00;99.90
21722;DHT22;11023;48.274;7.794;2022-11-15T00:52:18;13.00;99.90
21722;DHT22;11023;48.274;7.794;2022-11-15T00:54:43;12.90;99.90
21722;DHT22;11023;48.274;7.794;2022-11-15T00:57:09;13.00;99.90
21722;DHT22;11023;48.274;7.794;2022-11-15T00:59:35;13.00;99.90
21722;DHT22;11023;48.274;7.794;2022-11-15T01:02:00;13.10;99.90
21722;DHT22;11023;48.274;7.794;2022-11-15T01:04:27;13.30;99.90
21722;DHT22;11023;48.274;7.794;2022-11-15T01:06:52;13.30;99.90
21722;DHT22;11023;48.274;7.794;2022-11-15T01:09:18;13.40;99.90
21722;DHT22;11023;48.274;7.794;2022-11-15T01:11:44;13.40;99.90
21722;DHT22;11023;48.274;7.794;2022-11-15T01:14:10;13.40;99.90
21722;DHT22;11023;48.274;7.794;2022-11-15T01:16:35;13.40;99.90
21722;DHT22;11023;48.274;7.794;2022-11-15T01:19:01;13.40;99.90
21722;DHT22;11023;48.274;7.794;2022-11-15T01:21:27;13.40;99.90
21722;DHT22;11023;48.274;7.794;2022-11-15T01:23:54;13.40;99.90
21722;DHT22;11023;48.274;7.794;2022-11-15T01:26:20;13.40;99.90
21722;DHT22;11023;48.274;7.794;2022-11-15T01:28:46;13.40;99.90
21722;DHT22;11023;48.274;7.794;2022-11-15T01:31:15;13.40;99.90
21722;DHT22;11023;48.274;7.794;2022-11-15T01:33:41;13.40;99.90
21722;DHT22;11023;48.274;7.794;2022-11-15T01:36:10;13.40;99.90
21722;DHT22;11023;48.274;7.794;2022-11-15T01:38:37;13.40;99.90
21722;DHT22;11023;48.274;7.794;2022-11-15T01:41:03;13.40;99.90
21722;DHT22;11023;48.274;7.794;2022-11-15T01:43:32;13.40;99.90
21722;DHT22;11023;48.274;7.794;2022-11-15T01:46:27;13.40;99.90
21722;DHT22;11023;48.274;7.794;2022-11-15T01:48:57;13.40;99.90
21722;DHT22;11023;48.274;7.794;2022-11-15T01:51:27;13.30;99.90
21722;DHT22;11023;48.274;7.794;2022-11-15T01:53:57;13.20;99.90
21722;DHT22;11023;48.274;7.794;2022-11-15T01:56:27;13.20;99.90
21722;DHT22;11023;48.274;7.794;2022-11-15T01:58:57;13.20;99.90
21722;DHT22;11023;48.274;7.794;2022-11-15T02:01:24;13.10;99.90
21722;DHT22;11023;48.274;7.794;2022-11-15T02:03:52;13.10;99.90
21722;DHT22;11023;48.274;7.794;2022-11-15T02:06:20;13.00;99.90
21722;DHT22;11023;48.274;7.794;2022-11-15T02:08:47;12.90;99.90
21722;DHT22;11023;48.274;7.794;2022-11-15T02:11:13;12.90;99.90
21722;DHT22;11023;48.274;7.794;2022-11-15T02:13:39;12.80;99.90
21722;DHT22;11023;48.274;7.794;2022-11-15T02:19:29;12.70;99.90
21722;DHT22;11023;48.274;7.794;2022-11-15T02:25:46;12.50;99.90
21722;DHT22;11023;48.274;7.794;2022-11-15T02:34:44;12.30;99.90
21722;DHT22;11023;48.274;7.794;2022-11-15T02:39:49;12.30;99.90
21722;DHT22;11023;48.274;7.794;2022-11-15T02:42:26;12.40;99.90
21722;DHT22;11023;48.274;7.794;2022-11-15T02:45:26;12.40;99.90
21722;DHT22;11023;48.274;7.794;2022-11-15T02:47:56;12.40;99.90
21722;DHT22;11023;48.274;7.794;2022-11-15T02:50:25;12.50;99.90
21722;DHT22;11023;48.274;7.794;2022-11-15T02:52:53;12.50;99.90
21722;DHT22;11023;48.274;7.794;2022-11-15T02:55:30;12.50;99.90
21722;DHT22;11023;48.274;7.794;2022-11-15T02:58:35;12.50;99.90
21722;DHT22;11023;48.274;7.794;2022-11-15T03:08:06;12.40;99.90
21722;DHT22;11023;48.274;7.794;2022-11-15T03:10:42;12.30;99.90
21722;DHT22;11023;48.274;7.794;2022-11-15T03:15:45;12.20;99.90
21722;DHT22;11023;48.274;7.794;2022-11-15T03:18:23;12.30;99.90
21722;DHT22;11023;48.274;7.794;2022-11-15T03:20:53;12.20;99.90
21722;DHT22;11023;48.274;7.794;2022-11-15T03:23:20;12.10;99.90
21722;DHT22;11023;48.274;7.794;2022-11-15T03:25:48;12.10;99.90
21722;DHT22;11023;48.274;7.794;2022-11-15T03:28:21;12.10;99.90
21722;DHT22;11023;48.274;7.794;2022-11-15T03:30:49;12.10;99.90
21722;DHT22;11023;48.274;7.794;2022-11-15T03:33:16;12.10;99.90
21722;DHT22;11023;48.274;7.794;2022-11-15T03:35:44;12.10;99.90
21722;DHT22;11023;48.274;7.794;2022-11-15T03:38:25;12.00;99.90
21722;DHT22;11023;48.274;7.794;2022-11-15T03:40:59;12.00;99.90
21722;DHT22;11023;48.274;7.794;2022-11-15T03:44:34;12.00;99.90
21722;DHT22;11023;48.274;7.794;2022-11-15T03:46:40;12.00;99.90
21722;DHT22;11023;48.274;7.794;2022-11-15T03:49:33;12.00;99.90
21722;DHT22;11023;48.274;7.794;2022-11-15T03:52:01;12.00;99.90
21722;DHT22;11023;48.274;7.794;2022-11-15T03:54:28;12.00;99.90
21722;DHT22;11023;48.274;7.794;2022-11-15T03:56:53;12.10;99.90
21722;DHT22;11023;48.274;7.794;2022-11-15T03:59:19;12.10;99.90
21722;DHT22;11023;48.274;7.794;2022-11-15T04:01:45;12.10;99.90
21722;DHT22;11023;48.274;7.794;2022-11-15T04:04:11;12.10;99.90
21722;DHT22;11023;48.274;7.794;2022-11-15T04:06:37;12.10;99.90
21722;DHT22;11023;48.274;7.794;2022-11-15T04:09:02;12.10;99.90
21722;DHT22;11023;48.274;7.794;2022-11-15T04:11:28;12.20;99.90
21722;DHT22;11023;48.274;7.794;2022-11-15T04:13:54;12.20;99.90
21722;DHT22;11023;48.274;7.794;2022-11-15T04:16:19;12.20;99.90
21722;DHT22;11023;48.274;7.794;2022-11-15T04:18:45;12.40;99.90
21722;DHT22;11023;48.274;7.794;2022-11-15T04:21:31;12.40;99.90
21722;DHT22;11023;48.274;7.794;2022-11-15T04:24:28;12.40;99.90
21722;DHT22;11023;48.274;7.794;2022-11-15T04:26:54;12.50;99.90
21722;DHT22;11023;48.274;7.794;2022-11-15T04:29:19;12.50;99.90
21722;DHT22;11023;48.274;7.794;2022-11-15T04:32:04;12.50;99.90
21722;DHT22;11023;48.274;7.794;2022-11-15T04:34:31;12.50;99.90
21722;DHT22;11023;48.274;7.794;2022-11-15T04:36:57;12.50;99.90
21722;DHT22;11023;48.274;7.794;2022-11-15T04:39:39;12.50;99.90
21722;DHT22;11023;48.274;7.794;2022-11-15T04:42:07;12.50;99.90
21722;DHT22;11023;48.274;7.794;2022-11-15T04:44:33;12.50;99.90
21722;DHT22;11023;48.274;7.794;2022-11-15T04:46:59;12.50;99.90
21722;DHT22;11023;48.274;7.794;2022-11-15T04:49:25;12.50;99.90
21722;DHT22;11023;48.274;7.794;2022-11-15T04:51:50;12.50;99.90
21722;DHT22;11023;48.274;7.794;2022-11-15T04:54:16;12.50;99.90
21722;DHT22;11023;48.274;7.794;2022-11-15T04:56:42;12.50;99.90
21722;DHT22;11023;48.274;7.794;2022-11-15T04:59:08;12.50;99.90
21722;DHT22;11023;48.274;7.794;2022-11-15T05:01:34;12.50;99.90
21722;DHT22;11023;48.274;7.794;2022-11-15T05:03:59;12.50;99.90
21722;DHT22;11023;48.274;7.794;2022-11-15T05:06:43;12.50;99.90
21722;DHT22;11023;48.274;7.794;2022-11-15T05:09:09;12.50;99.90
21722;DHT22;11023;48.274;7.794;2022-11-15T05:11:35;12.50;99.90
21722;DHT22;11023;48.274;7.794;2022-11-15T05:14:01;12.50;99.90
21722;DHT22;11023;48.274;7.794;2022-11-15T05:16:27;12.50;99.90
21722;DHT22;11023;48.274;7.794;2022-11-15T05:18:54;12.50;99.90
21722;DHT22;11023;48.274;7.794;2022-11-15T05:21:20;12.50;99.90
21722;DHT22;11023;48.274;7.794;2022-11-15T05:23:46;12.50;99.90
21722;DHT22;11023;48.274;7.794;2022-11-15T05:26:12;12.50;99.90
21722;DHT22;11023;48.274;7.794;2022-11-15T05:28:40;12.50;99.90
21722;DHT22;11023;48.274;7.794;2022-11-15T05:31:11;12.50;99.90
21722;DHT22;11023;48.274;7.794;2022-11-15T05:33:39;12.50;99.90
21722;DHT22;11023;48.274;7.794;2022-11-15T05:38:57;12.40;99.90
21722;DHT22;11023;48.274;7.794;2022-11-15T05:41:29;12.40;99.90
21722;DHT22;11023;48.274;7.794;2022-11-15T05:43:57;12.40;99.90
21722;DHT22;11023;48.274;7.794;2022-11-15T05:46:22;12.40;99.90
21722;DHT22;11023;48.274;7.794;2022-11-15T05:48:50;12.40;99.90
21722;DHT22;11023;48.274;7.794;2022-11-15T05:51:17;12.30;99.90
21722;DHT22;11023;48.274;7.794;2022-11-15T05:53:44;12.30;99.90
21722;DHT22;11023;48.274;7.794;2022-11-15T05:56:11;12.20;99.90
21722;DHT22;11023;48.274;7.794;2022-11-15T05:58:37;12.20;99.90
21722;DHT22;11023;48.274;7.794;2022-11-15T06:01:02;12.20;99.90
21722;DHT22;11023;48.274;7.794;2022-11-15T06:03:28;12.20;99.90
21722;DHT22;11023;48.274;7.794;2022-11-15T06:05:54;12.20;99.90
21722;DHT22;11023;48.274;7.794;2022-11-15T06:08:20;12.10;99.90
21722;DHT22;11023;48.274;7.794;2022-11-15T06:10:46;12.10;99.90
21722;DHT22;11023;48.274;7.794;2022-11-15T06:13:12;12.10;99.90
21722;DHT22;11023;48.274;7.794;2022-11-15T06:15:37;12.10;99.90
21722;DHT22;11023;48.274;7.794;2022-11-15T06:18:03;12.10;99.90
21722;DHT22;11023;48.274;7.794;2022-11-15T06:20:30;12.10;99.90
21722;DHT22;11023;48.274;7.794;2022-11-15T06:23:00;12.00;99.90
21722;DHT22;11023;48.274;7.794;2022-11-15T06:25:27;12.10;99.90
21722;DHT22;11023;48.274;7.794;2022-11-15T06:27:56;12.10;99.90
21722;DHT22;11023;48.274;7.794;2022-11-15T06:30:24;12.10;99.90
21722;DHT22;11023;48.274;7.794;2022-11-15T06:32:49;12.10;99.90
21722;DHT22;11023;48.274;7.794;2022-11-15T06:35:15;12.10;99.90
21722;DHT22;11023;48.274;7.794;2022-11-15T06:37:42;12.10;99.90
21722;DHT22;11023;48.274;7.794;2022-11-15T06:40:09;12.10;99.90
21722;DHT22;11023;48.274;7.794;2022-11-15T06:42:35;12.10;99.90
21722;DHT22;11023;48.274;7.794;2022-11-15T06:45:01;12.10;99.90
21722;DHT22;11023;48.274;7.794;2022-11-15T06:47:27;12.10;99.90
21722;DHT22;11023;48.274;7.794;2022-11-15T06:49:53;12.10;99.90
21722;DHT22;11023;48.274;7.794;2022-11-15T06:52:19;12.10;99.90
21722;DHT22;11023;48.274;7.794;2022-11-15T06:54:45;12.10;99.90
21722;DHT22;11023;48.274;7.794;2022-11-15T06:57:11;12.10;99.90
21722;DHT22;11023;48.274;7.794;2022-11-15T06:59:37;12.10;99.90
21722;DHT22;11023;48.274;7.794;2022-11-15T07:02:03;12.10;99.90
21722;DHT22;11023;48.274;7.794;2022-11-15T07:04:29;12.10;99.90
21722;DHT22;11023;48.274;7.794;2022-11-15T07:06:55;12.10;99.90
21722;DHT22;11023;48.274;7.794;2022-11-15T07:09:20;12.10;99.90
21722;DHT22;11023;48.274;7.794;2022-11-15T07:11:46;12.10;99.90
21722;DHT22;11023;48.274;7.794;2022-11-15T07:14:12;12.10;99.90
21722;DHT22;11023;48.274;7.794;2022-11-15T07:16:38;12.10;99.90
21722;DHT22;11023;48.274;7.794;2022-11-15T07:19:04;12.10;99.90
21722;DHT22;11023;48.274;7.794;2022-11-15T07:21:29;12.10;99.90
21722;DHT22;11023;48.274;7.794;2022-11-15T07:23:55;12.10;99.90
21722;DHT22;11023;48.274;7.794;2022-11-15T07:26:21;12.10;99.90
21722;DHT22;11023;48.274;7.794;2022-11-15T07:28:47;12.10;99.90
21722;DHT22;11023;48.274;7.794;2022-11-15T07:31:13;12.00;99.90
21722;DHT22;11023;48.274;7.794;2022-11-15T07:33:39;12.00;99.90
21722;DHT22;11023;48.274;7.794;2022-11-15T07:36:06;12.00;99.90
21722;DHT22;11023;48.274;7.794;2022-11-15T07:38:34;12.00;99.90
21722;DHT22;11023;48.274;7.794;2022-11-15T07:41:02;12.00;99.90
21722;DHT22;11023;48.274;7.794;2022-11-15T07:43:28;12.00;99.90
21722;DHT22;11023;48.274;7.794;2022-11-15T07:45:56;12.00;99.90
21722;DHT22;11023;48.274;7.794;2022-11-15T07:48:23;12.00;99.90
21722;DHT22;11023;48.274;7.794;2022-11-15T07:50:49;12.00;99.90
21722;DHT22;11023;48.274;7.794;2022-11-15T07:53:15;12.00;99.90
21722;DHT22;11023;48.274;7.794;2022-11-15T07:55:53;12.00;99.90
21722;DHT22;11023;48.274;7.794;2022-11-15T07:58:19;12.10;99.90
21722;DHT22;11023;48.274;7.794;2022-11-15T08:00:45;12.10;99.90
21722;DHT22;11023;48.274;7.794;2022-11-15T08:03:13;12.10;99.90
21722;DHT22;11023;48.274;7.794;2022-11-15T08:05:41;12.10;99.90
21722;DHT22;11023;48.274;7.794;2022-11-15T08:08:08;12.20;99.90
21722;DHT22;11023;48.274;7.794;2022-11-15T08:10:34;12.20;99.90
21722;DHT22;11023;48.274;7.794;2022-11-15T08:13:08;12.20;99.90
21722;DHT22;11023;48.274;7.794;2022-11-15T08:15:35;12.20;99.90
21722;DHT22;11023;48.274;7.794;2022-11-15T08:18:05;12.20;99.90
21722;DHT22;11023;48.274;7.794;2022-11-15T08:20:32;12.30;99.90
21722;DHT22;11023;48.274;7.794;2022-11-15T08:23:00;12.30;99.90
21722;DHT22;11023;48.274;7.794;2022-11-15T08:25:28;12.30;99.90
21722;DHT22;11023;48.274;7.794;2022-11-15T08:27:56;12.40;99.90
21722;DHT22;11023;48.274;7.794;2022-11-15T08:30:23;12.50;99.90
21722;DHT22;11023;48.274;7.794;2022-11-15T08:32:50;12.60;99.90
21722;DHT22;11023;48.274;7.794;2022-11-15T08:35:17;12.70;99.90
21722;DHT22;11023;48.274;7.794;2022-11-15T08:37:44;12.80;99.90
21722;DHT22;11023;48.274;7.794;2022-11-15T08:40:10;12.80;99.90
21722;DHT22;11023;48.274;7.794;2022-11-15T08:42:36;12.90;99.90
21722;DHT22;11023;48.274;7.794;2022-11-15T08:45:02;13.00;99.90
21722;DHT22;11023;48.274;7.794;2022-11-15T08:47:28;13.00;99.90
21722;DHT22;11023;48.274;7.794;2022-11-15T08:49:54;13.00;99.90
21722;DHT22;11023;48.274;7.794;2022-11-15T08:52:20;13.00;99.90
21722;DHT22;11023;48.274;7.794;2022-11-15T08:54:48;13.00;99.90
21722;DHT22;11023;48.274;7.794;2022-11-15T08:57:13;13.00;99.90
21722;DHT22;11023;48.274;7.794;2022-11-15T08:59:40;12.90;99.90
21722;DHT22;11023;48.274;7.794;2022-11-15T09:02:06;12.90;99.90
21722;DHT22;11023;48.274;7.794;2022-11-15T09:04:32;12.90;99.90
21722;DHT22;11023;48.274;7.794;2022-11-15T09:06:58;12.90;99.90
21722;DHT22;11023;48.274;7.794;2022-11-15T09:09:23;12.80;99.90
21722;DHT22;11023;48.274;7.794;2022-11-15T09:11:49;12.80;99.90
21722;DHT22;11023;48.274;7.794;2022-11-15T09:14:16;12.80;99.90
21722;DHT22;11023;48.274;7.794;2022-11-15T09:16:42;12.80;99.90
21722;DHT22;11023;48.274;7.794;2022-11-15T09:19:07;12.80;99.90
21722;DHT22;11023;48.274;7.794;2022-11-15T09:21:33;12.80;99.90
21722;DHT22;11023;48.274;7.794;2022-11-15T09:23:59;12.80;99.90
21722;DHT22;11023;48.274;7.794;2022-11-15T09:26:25;12.80;99.90
21722;DHT22;11023;48.274;7.794;2022-11-15T09:28:51;12.80;99.90
21722;DHT22;11023;48.274;7.794;2022-11-15T09:31:17;12.80;99.90
21722;DHT22;11023;48.274;7.794;2022-11-15T09:33:46;12.90;99.90
21722;DHT22;11023;48.274;7.794;2022-11-15T09:36:12;12.90;99.90
21722;DHT22;11023;48.274;7.794;2022-11-15T09:38:38;13.00;99.90
21722;DHT22;11023;48.274;7.794;2022-11-15T09:41:19;12.90;99.90
21722;DHT22;11023;48.274;7.794;2022-11-15T09:46:56;13.00;99.90
21722;DHT22;11023;48.274;7.794;2022-11-15T09:49:24;13.10;99.90
21722;DHT22;11023;48.274;7.794;2022-11-15T09:51:52;13.10;99.90
21722;DHT22;11023;48.274;7.794;2022-11-15T09:56:47;13.10;99.90
21722;DHT22;11023;48.274;7.794;2022-11-15T10:04:14;13.20;99.90
21722;DHT22;11023;48.274;7.794;2022-11-15T10:06:47;13.30;99.90
21722;DHT22;11023;48.274;7.794;2022-11-15T10:09:26;13.40;99.90
21722;DHT22;11023;48.274;7.794;2022-11-15T10:12:06;13.40;99.90
21722;DHT22;11023;48.274;7.794;2022-11-15T10:14:32;13.50;99.90
21722;DHT22;11023;48.274;7.794;2022-11-15T10:20:07;13.60;99.90
21722;DHT22;11023;48.274;7.794;2022-11-15T10:22:41;13.60;99.90
21722;DHT22;11023;48.274;7.794;2022-11-15T10:27:35;13.70;99.90
21722;DHT22;11023;48.274;7.794;2022-11-15T10:30:04;13.80;99.90
21722;DHT22;11023;48.274;7.794;2022-11-15T10:32:36;13.80;99.90
21722;DHT22;11023;48.274;7.794;2022-11-15T10:35:20;13.80;99.90
21722;DHT22;11023;48.274;7.794;2022-11-15T10:37:46;13.90;99.90
21722;DHT22;11023;48.274;7.794;2022-11-15T10:40:23;13.90;99.90
21722;DHT22;11023;48.274;7.794;2022-11-15T10:43:06;13.90;99.90
21722;DHT22;11023;48.274;7.794;2022-11-15T10:45:39;13.90;99.90
21722;DHT22;11023;48.274;7.794;2022-11-15T10:50:44;14.00;99.90
21722;DHT22;11023;48.274;7.794;2022-11-15T10:53:27;14.10;99.90
21722;DHT22;11023;48.274;7.794;2022-11-15T10:56:00;14.10;99.90
21722;DHT22;11023;48.274;7.794;2022-11-15T10:58:54;14.20;99.90
21722;DHT22;11023;48.274;7.794;2022-11-15T11:01:25;14.20;99.90
21722;DHT22;11023;48.274;7.794;2022-11-15T11:04:02;14.30;99.90
21722;DHT22;11023;48.274;7.794;2022-11-15T11:06:29;14.40;99.90
21722;DHT22;11023;48.274;7.794;2022-11-15T11:09:01;14.40;99.90
21722;DHT22;11023;48.274;7.794;2022-11-15T11:11:47;14.40;99.90
21722;DHT22;11023;48.274;7.794;2022-11-15T11:14:24;14.40;99.90
21722;DHT22;11023;48.274;7.794;2022-11-15T11:31:47;14.60;99.90
21722;DHT22;11023;48.274;7.794;2022-11-15T11:48:14;14.70;99.90
21722;DHT22;11023;48.274;7.794;2022-11-15T11:50:44;14.60;99.90
21722;DHT22;11023;48.274;7.794;2022-11-15T11:58:48;14.70;99.90
21722;DHT22;11023;48.274;7.794;2022-11-15T12:12:13;14.80;99.90
21722;DHT22;11023;48.274;7.794;2022-11-15T12:14:50;14.90;99.90
21722;DHT22;11023;48.274;7.794;2022-11-15T12:17:23;14.90;99.90
21722;DHT22;11023;48.274;7.794;2022-11-15T12:19:49;14.90;99.90
21722;DHT22;11023;48.274;7.794;2022-11-15T12:25:03;15.00;99.90
21722;DHT22;11023;48.274;7.794;2022-11-15T12:27:54;15.00;99.90
21722;DHT22;11023;48.274;7.794;2022-11-15T12:30:27;15.00;99.90
21722;DHT22;11023;48.274;7.794;2022-11-15T12:32:59;14.90;99.90
21722;DHT22;11023;48.274;7.794;2022-11-15T12:36:04;14.90;99.90
21722;DHT22;11023;48.274;7.794;2022-11-15T12:41:19;14.90;99.90
21722;DHT22;11023;48.274;7.794;2022-11-15T12:43:46;14.80;99.90
21722;DHT22;11023;48.274;7.794;2022-11-15T12:46:23;14.80;99.90
21722;DHT22;11023;48.274;7.794;2022-11-15T13:02:40;14.60;99.90
21722;DHT22;11023;48.274;7.794;2022-11-15T13:18:25;14.50;99.90
21722;DHT22;11023;48.274;7.794;2022-11-15T13:20:52;14.40;99.90
21722;DHT22;11023;48.274;7.794;2022-11-15T13:23:18;14.40;99.90
21722;DHT22;11023;48.274;7.794;2022-11-15T13:26:12;14.40;99.90
21722;DHT22;11023;48.274;7.794;2022-11-15T13:34:36;14.30;99.90
21722;DHT22;11023;48.274;7.794;2022-11-15T13:36:56;14.30;99.90
21722;DHT22;11023;48.274;7.794;2022-11-15T13:39:32;14.30;99.90
21722;DHT22;11023;48.274;7.794;2022-11-15T13:42:00;14.30;99.90
21722;DHT22;11023;48.274;7.794;2022-11-15T13:44:28;14.30;99.90
21722;DHT22;11023;48.274;7.794;2022-11-15T13:47:05;14.20;99.90
21722;DHT22;11023;48.274;7.794;2022-11-15T13:49:32;14.20;99.90
21722;DHT22;11023;48.274;7.794;2022-11-15T13:52:00;14.20;99.90
21722;DHT22;11023;48.274;7.794;2022-11-15T13:54:34;14.10;99.90
21722;DHT22;11023;48.274;7.794;2022-11-15T14:02:31;14.00;99.90
21722;DHT22;11023;48.274;7.794;2022-11-15T14:05:17;14.10;99.90
21722;DHT22;11023;48.274;7.794;2022-11-15T14:07:58;14.10;99.90
21722;DHT22;11023;48.274;7.794;2022-11-15T14:12:51;14.00;99.90
21722;DHT22;11023;48.274;7.794;2022-11-15T14:15:38;14.00;99.90
21722;DHT22;11023;48.274;7.794;2022-11-15T14:18:05;14.00;99.90
21722;DHT22;11023;48.274;7.794;2022-11-15T14:20:37;14.00;99.90
21722;DHT22;11023;48.274;7.794;2022-11-15T14:23:25;14.00;99.90
21722;DHT22;11023;48.274;7.794;2022-11-15T14:25:59;14.00;99.90
21722;DHT22;11023;48.274;7.794;2022-11-15T14:30:55;14.00;99.90
21722;DHT22;11023;48.274;7.794;2022-11-15T14:33:30;14.00;99.90
21722;DHT22;11023;48.274;7.794;2022-11-15T14:36:02;14.00;99.90
21722;DHT22;11023;48.274;7.794;2022-11-15T14:38:28;14.00;99.90
21722;DHT22;11023;48.274;7.794;2022-11-15T14:40:54;13.90;99.90
21722;DHT22;11023;48.274;7.794;2022-11-15T14:43:21;13.90;99.90
21722;DHT22;11023;48.274;7.794;2022-11-15T14:45:47;13.90;99.90
21722;DHT22;11023;48.274;7.794;2022-11-15T14:48:12;13.90;99.90
21722;DHT22;11023;48.274;7.794;2022-11-15T14:50:38;13.90;99.90
21722;DHT22;11023;48.274;7.794;2022-11-15T14:53:05;13.90;99.90
21722;DHT22;11023;48.274;7.794;2022-11-15T14:55:33;13.90;99.90
21722;DHT22;11023;48.274;7.794;2022-11-15T14:58:05;13.80;99.90
21722;DHT22;11023;48.274;7.794;2022-11-15T15:00:34;13.80;99.90
21722;DHT22;11023;48.274;7.794;2022-11-15T15:03:00;13.90;99.90
21722;DHT22;11023;48.274;7.794;2022-11-15T15:05:40;13.90;99.90
21722;DHT22;11023;48.274;7.794;2022-11-15T15:08:07;13.90;99.90
21722;DHT22;11023;48.274;7.794;2022-11-15T15:10:44;13.90;99.90
21722;DHT22;11023;48.274;7.794;2022-11-15T15:13:22;13.80;99.90
21722;DHT22;11023;48.274;7.794;2022-11-15T15:15:48;13.80;99.90
21722;DHT22;11023;48.274;7.794;2022-11-15T15:18:15;13.80;99.90
21722;DHT22;11023;48.274;7.794;2022-11-15T15:20:43;13.70;99.90
21722;DHT22;11023;48.274;7.794;2022-11-15T15:23:20;13.70;99.90
21722;DHT22;11023;48.274;7.794;2022-11-15T15:25:47;13.70;99.90
21722;DHT22;11023;48.274;7.794;2022-11-15T15:28:14;13.70;99.90
21722;DHT22;11023;48.274;7.794;2022-11-15T15:30:41;13.70;99.90
21722;DHT22;11023;48.274;7.794;2022-11-15T15:33:06;13.60;99.90
21722;DHT22;11023;48.274;7.794;2022-11-15T15:35:34;13.60;99.90
21722;DHT22;11023;48.274;7.794;2022-11-15T15:38:00;13.60;99.90
21722;DHT22;11023;48.274;7.794;2022-11-15T15:40:28;13.50;99.90
21722;DHT22;11023;48.274;7.794;2022-11-15T15:42:54;13.50;99.90
21722;DHT22;11023;48.274;7.794;2022-11-15T15:45:20;13.50;99.90
21722;DHT22;11023;48.274;7.794;2022-11-15T15:47:47;13.50;99.90
21722;DHT22;11023;48.274;7.794;2022-11-15T15:50:28;13.50;99.90
21722;DHT22;11023;48.274;7.794;2022-11-15T15:52:56;13.40;99.90
21722;DHT22;11023;48.274;7.794;2022-11-15T15:55:22;13.40;99.90
21722;DHT22;11023;48.274;7.794;2022-11-15T15:57:49;13.30;99.90
21722;DHT22;11023;48.274;7.794;2022-11-15T16:00:15;13.30;99.90
21722;DHT22;11023;48.274;7.794;2022-11-15T16:02:42;13.30;99.90
21722;DHT22;11023;48.274;7.794;2022-11-15T16:05:09;13.30;99.90
21722;DHT22;11023;48.274;7.794;2022-11-15T16:07:35;13.20;99.90
21722;DHT22;11023;48.274;7.794;2022-11-15T16:10:04;13.20;99.90
21722;DHT22;11023;48.274;7.794;2022-11-15T16:12:39;13.20;99.90
21722;DHT22;11023;48.274;7.794;2022-11-15T16:15:07;13.20;99.90
21722;DHT22;11023;48.274;7.794;2022-11-15T16:17:38;13.20;99.90
21722;DHT22;11023;48.274;7.794;2022-11-15T16:20:05;13.20;99.90
21722;DHT22;11023;48.274;7.794;2022-11-15T16:22:31;13.10;99.90
21722;DHT22;11023;48.274;7.794;2022-11-15T16:24:57;13.10;99.90
21722;DHT22;11023;48.274;7.794;2022-11-15T16:27:23;13.10;99.90
21722;DHT22;11023;48.274;7.794;2022-11-15T16:29:50;13.10;99.90
21722;DHT22;11023;48.274;7.794;2022-11-15T16:32:16;13.10;99.90
21722;DHT22;11023;48.274;7.794;2022-11-15T16:34:41;13.00;99.90
21722;DHT22;11023;48.274;7.794;2022-11-15T16:37:23;13.00;99.90
21722;DHT22;11023;48.274;7.794;2022-11-15T16:39:49;13.00;99.90
21722;DHT22;11023;48.274;7.794;2022-11-15T16:42:15;12.90;99.90
21722;DHT22;11023;48.274;7.794;2022-11-15T16:44:40;13.00;99.90
21722;DHT22;11023;48.274;7.794;2022-11-15T16:47:18;12.90;99.90
21722;DHT22;11023;48.274;7.794;2022-11-15T16:49:47;12.90;99.90
21722;DHT22;11023;48.274;7.794;2022-11-15T16:52:13;12.90;99.90
21722;DHT22;11023;48.274;7.794;2022-11-15T16:54:39;12.90;99.90
21722;DHT22;11023;48.274;7.794;2022-11-15T16:57:05;12.90;99.90
21722;DHT22;11023;48.274;7.794;2022-11-15T16:59:30;12.80;99.90
21722;DHT22;11023;48.274;7.794;2022-11-15T17:01:58;12.80;99.90
21722;DHT22;11023;48.274;7.794;2022-11-15T17:04:23;12.80;99.90
21722;DHT22;11023;48.274;7.794;2022-11-15T17:06:49;12.80;99.90
21722;DHT22;11023;48.274;7.794;2022-11-15T17:09:20;12.80;99.90
21722;DHT22;11023;48.274;7.794;2022-11-15T17:11:50;12.80;99.90
21722;DHT22;11023;48.274;7.794;2022-11-15T17:14:16;12.80;99.90
21722;DHT22;11023;48.274;7.794;2022-11-15T17:16:42;12.80;99.90
21722;DHT22;11023;48.274;7.794;2022-11-15T17:19:15;12.70;99.90
21722;DHT22;11023;48.274;7.794;2022-11-15T17:21:42;12.80;99.90
21722;DHT22;11023;48.274;7.794;2022-11-15T17:24:08;12.70;99.90
21722;DHT22;11023;48.274;7.794;2022-11-15T17:26:34;12.70;99.90
21722;DHT22;11023;48.274;7.794;2022-11-15T17:29:00;12.70;99.90
21722;DHT22;11023;48.274;7.794;2022-11-15T17:31:26;12.60;99.90
21722;DHT22;11023;48.274;7.794;2022-11-15T17:33:54;12.60;99.90
21722;DHT22;11023;48.274;7.794;2022-11-15T17:36:20;12.60;99.90
21722;DHT22;11023;48.274;7.794;2022-11-15T17:38:45;12.60;99.90
21722;DHT22;11023;48.274;7.794;2022-11-15T17:41:16;12.60;99.90
21722;DHT22;11023;48.274;7.794;2022-11-15T17:43:42;12.50;99.90
21722;DHT22;11023;48.274;7.794;2022-11-15T17:46:12;12.50;99.90
21722;DHT22;11023;48.274;7.794;2022-11-15T17:48:38;12.50;99.90
21722;DHT22;11023;48.274;7.794;2022-11-15T17:51:06;12.50;99.90
21722;DHT22;11023;48.274;7.794;2022-11-15T17:53:34;12.50;99.90
21722;DHT22;11023;48.274;7.794;2022-11-15T17:56:04;12.50;99.90
21722;DHT22;11023;48.274;7.794;2022-11-15T17:58:31;12.50;99.90
21722;DHT22;11023;48.274;7.794;2022-11-15T18:03:38;12.40;99.90
21722;DHT22;11023;48.274;7.794;2022-11-15T18:06:06;12.40;99.90